Portada
METAR-TAF:

METAR-TAF

Aeropuertos :

Horta, Azores, Portugal

Aeropuerto de Horta

latitud: 38-31N, longitud: 028-43W, altitud: 40 m

Observación

El informe se hizo hace 6 horas y 3 minutos, a las 20:00 UTC
Viento 4 kt del este-sureste
Temperatura 24°C
Humedad 78%
Presión 1025 hPa
Visibilidad 10 km o más
Escasas nubes a una altura de 2000 ft
Cielo nuboso a una altura de 4000 ft

METAR: LPHR 222000Z 12004KT 9999 FEW020 BKN040 24/20 Q1025

Hora: 02:03 (02:03 UTC)

Pronóstico

El informe se hizo hace 12 horas y 3 minutos, a las 14:00 UTC
Pronóstico válido del 22 a las 15 UTC al 22 a las 24 UTC
Viento 5 kt con dirección variable
Visibilidad 10 km o más
Escasas nubes a una altura de 1500 ft
Cielo nuboso a una altura de 5000 ft
Temporalmente
del 22 a las 15 UTC al 22 a las 18 UTC
Viento 7 kt del sur

TAF: LPHR 221400Z 2215/2224 VRB05KT 9999 FEW015 BKN050 TEMPO 2215/2218 19007KT

Observaciones y pronósticos meteorológicos de más de 4000 aeropuertos (mensajes METAR y TAF).

Los puntos amarillos y rojos representan las estaciones disponibles.

Ponga el ratón en el punto deseado para ver el nombre de la estación.

Haga clic para ver las observaciones y los pronósticos meteorológicos.

Para cambiar el mapa : haga clic en los botones verdes con una cruz de color negro para hacer un zoom, en el botón verde con un guión para alejar o en las flechas verdes para mapas adyacentes.


METAR-TAF: